메인 페이지
METAR-TAF:

METAR-TAF

공항 :

물탄 국제공항

물탄, 파키스탄

위도: 30-12-12N, 경도: 71-25-09E, 고도: 122m

현재 날씨관측

예보는 40분 전, 08:00시(UTC)에 발표되었습니다.
남서4kt
온도 41°C
습도 34%
기압 998 hPa
시정: 5000m
연무

METAR: OPMT 240800Z 23004KT 5000 HZ NSC 41/22 Q0998 NOSIG

시각: 13:40 (08:40 UTC)

예보

예보는 4 시간 37분 전, 04:03시(UTC)에 발표되었습니다.
예보 대상 시간: 24일 06시부터 24일 24시까지 (UTC)
남동10kt
시정: 5000m
고도 4000ft 상공 구름 조금
고도 12000ft 상공 구름 보통
연무
확률 30% :
일시적
24일 10시부터 24일 14시까지 (UTC)
20kt
시정: 2000m
고도 12000ft 상공 구름 조금
날린먼지

TAF: OPMT 240403Z 2406/2424 13010KT 5000 HZ FEW040 SCT120 TX41/2410Z PROB30 TEMPO 2410/2414 36020KT 2000 BLDU FEW120

4,000개 이상의 공항 관측 자료 및 예보 (METAR 및 TAF 보고).

지도상에서 검색 가능한 기상관측소가 노란 점과 빨간 점으로 표시되어 있습니다.

기상관측소 명을 보려면 표시 위로 마우스를 이동하세요.

날씨 관측과 예보를 보려면 클릭하세요.

지도 변경 : 확대하려면 엑스 표시가 있는 녹색 버튼, 축소하려면 빼기 표시가 있는 녹색 버튼, 다음 페이지의 지도를 보려면 녹색 화살표를 클릭하세요.


METAR-TAF: